Time,TemperatureF,DewpointF,PressureIn,WindDirection,WindDirectionDegrees,WindSpeedMPH,WindSpeedGustMPH,Humidity,HourlyPrecipIn,Conditions,Clouds,dailyrainin,SoftwareType,DateUTC
2013-01-26 00:00:00,25.7,17.9,29.46,WSW,248,1.1,1.1,72,0.00,,,0.00,WUHU216HW,2013-01-26 05:00:00,
2013-01-26 00:01:00,25.7,17.9,29.46,WSW,248,0.4,1.1,72,0.00,,,0.00,WUHU216HW,2013-01-26 05:01:00,
2013-01-26 00:02:00,25.7,17.9,29.46,WSW,248,0.0,1.1,72,0.00,,,0.00,WUHU216HW,2013-01-26 05:02:00,
2013-01-26 00:07:00,25.7,17.9,29.46,West,270,1.1,1.6,72,0.00,,,0.00,WUHU216HW,2013-01-26 05:07:00,
2013-01-26 00:12:00,25.9,18.1,29.45,West,270,0.0,1.6,72,0.00,,,0.00,WUHU216HW,2013-01-26 05:12:00,
2013-01-26 00:17:00,25.6,17.7,29.45,West,270,0.0,1.1,72,0.00,,,0.00,WUHU216HW,2013-01-26 05:17:00,
2013-01-26 00:22:00,25.6,17.7,29.45,West,270,0.0,0.0,72,0.00,,,0.00,WUHU216HW,2013-01-26 05:22:00,
2013-01-26 00:27:00,25.7,18.3,29.45,NW,315,0.9,1.1,73,0.00,,,0.00,WUHU216HW,2013-01-26 05:27:00,
2013-01-26 00:32:00,25.9,18.1,29.45,NW,315,0.4,1.8,72,0.00,,,0.00,WUHU216HW,2013-01-26 05:32:00,
2013-01-26 00:37:00,25.6,17.7,29.45,NNW,338,0.0,1.8,72,0.00,,,0.00,WUHU216HW,2013-01-26 05:37:00,
2013-01-26 00:42:00,24.8,17.0,29.45,NW,315,0.4,0.9,72,0.00,,,0.00,WUHU216HW,2013-01-26 05:42:00,
2013-01-26 00:47:00,24.8,17.4,29.45,WNW,293,0.7,1.3,73,0.00,,,0.00,WUHU216HW,2013-01-26 05:47:00,
2013-01-26 00:52:00,24.8,17.4,29.45,NW,315,0.4,1.3,73,0.00,,,0.00,WUHU216HW,2013-01-26 05:52:00,
2013-01-26 00:57:00,24.8,17.4,29.45,WNW,293,0.7,0.9,73,0.00,,,0.00,WUHU216HW,2013-01-26 05:57:00,
2013-01-26 01:02:00,24.7,17.2,29.45,NNW,338,1.6,1.6,73,0.00,,,0.00,WUHU216HW,2013-01-26 06:02:00,
2013-01-26 01:07:00,23.8,16.7,29.45,North,0,0.4,2.0,74,0.00,,,0.00,WUHU216HW,2013-01-26 06:07:00,
2013-01-26 01:12:00,22.7,16.2,29.45,North,0,0.7,2.0,76,0.00,,,0.00,WUHU216HW,2013-01-26 06:12:00,
2013-01-26 01:17:00,22.1,16.0,29.45,NNW,338,1.1,1.8,77,0.00,,,0.00,WUHU216HW,2013-01-26 06:17:00,
2013-01-26 01:22:00,22.0,15.9,29.45,NNW,338,2.5,2.5,77,0.00,,,0.00,WUHU216HW,2013-01-26 06:22:00,
2013-01-26 01:27:00,22.3,16.5,29.45,NNW,338,1.6,2.7,78,0.00,,,0.00,WUHU216HW,2013-01-26 06:27:00,
2013-01-26 01:32:00,22.3,16.5,29.46,NNW,338,1.3,2.7,78,0.00,,,0.00,WUHU216HW,2013-01-26 06:32:00,
2013-01-26 01:37:00,22.3,16.5,29.45,North,0,0.0,1.8,78,0.00,,,0.00,WUHU216HW,2013-01-26 06:37:00,
2013-01-26 01:42:00,22.5,17.0,29.45,NNW,338,1.6,1.8,79,0.00,,,0.00,WUHU216HW,2013-01-26 06:42:00,
2013-01-26 01:47:00,23.0,17.8,29.46,NW,315,2.5,2.5,80,0.00,,,0.00,WUHU216HW,2013-01-26 06:47:00,
2013-01-26 01:52:00,23.8,18.5,29.46,NW,315,0.4,2.5,80,0.00,,,0.00,WUHU216HW,2013-01-26 06:52:00,
2013-01-26 01:57:00,24.1,18.9,29.46,NW,315,0.7,2.5,80,0.00,,,0.00,WUHU216HW,2013-01-26 06:57:00,
2013-01-26 02:02:00,24.3,19.1,29.46,NW,315,0.2,1.3,80,0.00,,,0.00,WUHU216HW,2013-01-26 07:02:00,
2013-01-26 02:07:00,24.1,18.3,29.46,NNW,338,0.9,2.0,78,0.00,,,0.00,WUHU216HW,2013-01-26 07:07:00,
2013-01-26 02:12:00,23.9,18.4,29.46,North,0,0.7,2.0,79,0.00,,,0.00,WUHU216HW,2013-01-26 07:12:00,
2013-01-26 02:17:00,23.8,17.9,29.47,North,0,0.4,1.3,78,0.00,,,0.00,WUHU216HW,2013-01-26 07:17:00,
2013-01-26 02:22:00,23.6,17.7,29.47,North,0,0.2,1.3,78,0.00,,,0.00,WUHU216HW,2013-01-26 07:22:00,
2013-01-26 02:27:00,23.6,18.1,29.47,NNW,338,0.2,1.3,79,0.00,,,0.00,WUHU216HW,2013-01-26 07:27:00,
2013-01-26 02:32:00,23.6,18.1,29.47,North,0,2.7,3.1,79,0.00,,,0.00,WUHU216HW,2013-01-26 07:32:00,
2013-01-26 02:37:00,23.6,18.1,29.47,NNE,23,2.7,3.8,79,0.00,,,0.00,WUHU216HW,2013-01-26 07:37:00,
2013-01-26 02:42:00,23.4,17.9,29.47,NE,45,2.7,4.7,79,0.00,,,0.00,WUHU216HW,2013-01-26 07:42:00,
2013-01-26 02:47:00,23.6,18.4,29.47,NNW,338,0.4,5.1,80,0.00,,,0.00,WUHU216HW,2013-01-26 07:47:00,
2013-01-26 02:52:00,23.8,18.5,29.48,North,0,2.0,5.1,80,0.00,,,0.00,WUHU216HW,2013-01-26 07:52:00,
2013-01-26 02:57:00,23.9,18.7,29.48,NNE,23,2.9,3.8,80,0.00,,,0.00,WUHU216HW,2013-01-26 07:57:00,
2013-01-26 03:02:00,24.1,18.9,29.48,NNW,338,2.5,6.0,80,0.00,,,0.00,WUHU216HW,2013-01-26 08:02:00,
2013-01-26 03:07:00,24.1,18.9,29.48,NNE,23,1.8,6.0,80,0.00,,,0.00,WUHU216HW,2013-01-26 08:07:00,
2013-01-26 03:12:00,24.1,18.5,29.49,NNE,23,1.3,5.4,79,0.00,,,0.00,WUHU216HW,2013-01-26 08:12:00,
2013-01-26 03:17:00,23.9,18.4,29.48,North,0,1.3,9.2,79,0.00,,,0.00,WUHU216HW,2013-01-26 08:17:00,
2013-01-26 03:22:00,23.8,17.9,29.48,NNW,338,1.8,9.2,78,0.00,,,0.00,WUHU216HW,2013-01-26 08:22:00,
2013-01-26 03:27:00,23.4,17.9,29.48,NNW,338,0.7,4.7,79,0.00,,,0.00,WUHU216HW,2013-01-26 08:27:00,
2013-01-26 03:32:00,23.4,17.9,29.48,North,0,2.5,2.5,79,0.00,,,0.00,WUHU216HW,2013-01-26 08:32:00,
2013-01-26 03:37:00,23.4,17.6,29.48,NNE,23,1.1,4.0,78,0.00,,,0.00,WUHU216HW,2013-01-26 08:37:00,
2013-01-26 03:42:00,23.0,17.2,29.49,North,0,2.0,4.0,78,0.00,,,0.00,WUHU216HW,2013-01-26 08:42:00,
2013-01-26 03:47:00,22.7,16.8,29.49,North,0,0.9,4.3,78,0.00,,,0.00,WUHU216HW,2013-01-26 08:47:00,
2013-01-26 03:52:00,22.5,17.0,29.49,North,0,0.9,4.3,79,0.00,,,0.00,WUHU216HW,2013-01-26 08:52:00,
2013-01-26 03:57:00,22.7,17.5,29.50,NNW,338,1.6,3.1,80,0.00,,,0.00,WUHU216HW,2013-01-26 08:57:00,
2013-01-26 04:02:00,22.7,17.2,29.50,NNW,338,2.0,2.5,79,0.00,,,0.00,WUHU216HW,2013-01-26 09:02:00,
2013-01-26 04:07:00,22.7,17.2,29.49,NNW,338,0.7,2.9,79,0.00,,,0.00,WUHU216HW,2013-01-26 09:07:00,
2013-01-26 04:12:00,22.5,17.0,29.50,NNW,338,1.1,2.9,79,0.00,,,0.00,WUHU216HW,2013-01-26 09:12:00,
2013-01-26 04:17:00,22.3,16.8,29.50,NNE,23,0.2,2.7,79,0.00,,,0.00,WUHU216HW,2013-01-26 09:17:00,
2013-01-26 04:22:00,22.0,16.5,29.50,NNE,23,4.3,4.3,79,0.00,,,0.00,WUHU216HW,2013-01-26 09:22:00,
2013-01-26 04:27:00,21.8,16.6,29.50,NNE,23,2.7,4.7,80,0.00,,,0.00,WUHU216HW,2013-01-26 09:27:00,
2013-01-26 04:32:00,22.0,16.7,29.50,SE,135,0.7,4.7,80,0.00,,,0.00,WUHU216HW,2013-01-26 09:32:00,
2013-01-26 04:37:00,22.1,16.9,29.51,NNW,338,0.4,2.7,80,0.00,,,0.00,WUHU216HW,2013-01-26 09:37:00,
2013-01-26 04:42:00,22.3,17.1,29.51,NNW,338,0.7,1.1,80,0.00,,,0.00,WUHU216HW,2013-01-26 09:42:00,
2013-01-26 04:47:00,22.3,16.8,29.51,NNW,338,1.3,2.0,79,0.00,,,0.00,WUHU216HW,2013-01-26 09:47:00,
2013-01-26 04:52:00,22.5,17.3,29.51,NNE,23,1.8,3.1,80,0.00,,,0.00,WUHU216HW,2013-01-26 09:52:00,
2013-01-26 04:57:00,22.5,17.3,29.51,NE,45,3.4,3.4,80,0.00,,,0.00,WUHU216HW,2013-01-26 09:57:00,
2013-01-26 05:02:00,22.5,17.3,29.52,East,90,0.0,4.3,80,0.00,,,0.00,WUHU216HW,2013-01-26 10:02:00,
2013-01-26 05:07:00,22.7,17.5,29.52,SE,135,1.3,4.3,80,0.00,,,0.00,WUHU216HW,2013-01-26 10:07:00,
2013-01-26 05:12:00,22.7,17.5,29.52,ESE,113,0.4,1.3,80,0.00,,,0.00,WUHU216HW,2013-01-26 10:12:00,
2013-01-26 05:17:00,22.7,17.5,29.52,ESE,113,0.0,1.3,80,0.00,,,0.00,WUHU216HW,2013-01-26 10:17:00,
2013-01-26 05:22:00,22.9,17.6,29.53,SW,225,0.4,1.8,80,0.00,,,0.00,WUHU216HW,2013-01-26 10:22:00,
2013-01-26 05:27:00,22.9,17.4,29.53,ESE,113,0.0,1.8,79,0.00,,,0.00,WUHU216HW,2013-01-26 10:27:00,
2013-01-26 05:32:00,22.3,16.5,29.53,ENE,68,1.1,1.8,78,0.00,,,0.00,WUHU216HW,2013-01-26 10:32:00,
2013-01-26 05:37:00,22.0,16.7,29.53,SSE,158,1.6,1.8,80,0.00,,,0.00,WUHU216HW,2013-01-26 10:37:00,
2013-01-26 05:42:00,22.3,17.1,29.53,SE,135,0.0,1.6,80,0.00,,,0.00,WUHU216HW,2013-01-26 10:42:00,
2013-01-26 05:47:00,22.7,17.5,29.53,SW,225,0.7,1.8,80,0.00,,,0.00,WUHU216HW,2013-01-26 10:47:00,
2013-01-26 05:52:00,22.9,17.6,29.54,East,90,0.0,1.8,80,0.00,,,0.00,WUHU216HW,2013-01-26 10:52:00,
2013-01-26 05:57:00,22.7,17.2,29.54,East,90,0.4,0.7,79,0.00,,,0.00,WUHU216HW,2013-01-26 10:57:00,
2013-01-26 06:02:00,22.3,16.8,29.55,NE,45,0.0,0.7,79,0.00,,,0.00,WUHU216HW,2013-01-26 11:02:00,
2013-01-26 06:07:00,22.5,17.3,29.54,ESE,113,1.1,1.1,80,0.00,,,0.00,WUHU216HW,2013-01-26 11:07:00,
2013-01-26 06:12:00,22.7,17.5,29.55,North,0,0.4,1.6,80,0.00,,,0.00,WUHU216HW,2013-01-26 11:12:00,
2013-01-26 06:17:00,22.7,17.7,29.55,SE,135,0.7,1.6,81,0.00,,,0.00,WUHU216HW,2013-01-26 11:17:00,
2013-01-26 06:22:00,23.0,18.1,29.55,WNW,293,0.2,1.3,81,0.00,,,0.00,WUHU216HW,2013-01-26 11:22:00,
2013-01-26 06:27:00,23.2,18.0,29.55,ESE,113,0.4,1.6,80,0.00,,,0.00,WUHU216HW,2013-01-26 11:27:00,
2013-01-26 06:32:00,23.4,18.5,29.56,WNW,293,0.4,1.6,81,0.00,,,0.00,WUHU216HW,2013-01-26 11:32:00,
2013-01-26 06:37:00,23.6,18.6,29.56,SW,225,0.7,1.3,81,0.00,,,0.00,WUHU216HW,2013-01-26 11:37:00,
2013-01-26 06:42:00,23.8,18.5,29.56,WSW,248,0.0,0.9,80,0.00,,,0.00,WUHU216HW,2013-01-26 11:42:00,
2013-01-26 06:47:00,23.8,18.5,29.56,WSW,248,0.0,0.7,80,0.00,,,0.00,WUHU216HW,2013-01-26 11:47:00,
2013-01-26 06:52:00,23.8,18.5,29.56,WSW,248,0.0,0.0,80,0.00,,,0.00,WUHU216HW,2013-01-26 11:52:00,
2013-01-26 06:57:00,23.6,18.4,29.56,North,0,0.9,0.9,80,0.00,,,0.00,WUHU216HW,2013-01-26 11:57:00,
2013-01-26 07:02:00,23.4,18.2,29.56,NE,45,0.9,0.9,80,0.00,,,0.00,WUHU216HW,2013-01-26 12:02:00,
2013-01-26 07:07:00,23.4,18.2,29.57,North,0,0.7,2.0,80,0.00,,,0.00,WUHU216HW,2013-01-26 12:07:00,
2013-01-26 07:12:00,23.4,18.7,29.57,North,0,1.1,5.1,82,0.00,,,0.00,WUHU216HW,2013-01-26 12:12:00,
2013-01-26 07:17:00,23.6,18.9,29.57,NE,45,4.5,5.1,82,0.00,,,0.00,WUHU216HW,2013-01-26 12:17:00,
2013-01-26 07:22:00,23.8,19.1,29.57,NNE,23,2.7,4.5,82,0.00,,,0.00,WUHU216HW,2013-01-26 12:22:00,
2013-01-26 07:27:00,23.8,19.1,29.58,NNW,338,0.4,4.5,82,0.00,,,0.00,WUHU216HW,2013-01-26 12:27:00,
2013-01-26 07:32:00,23.9,19.3,29.58,North,0,2.5,5.1,82,0.00,,,0.00,WUHU216HW,2013-01-26 12:32:00,
2013-01-26 07:37:00,23.8,19.1,29.58,North,0,1.6,5.1,82,0.00,,,0.00,WUHU216HW,2013-01-26 12:37:00,
2013-01-26 07:42:00,23.8,19.1,29.58,NNW,338,1.1,4.0,82,0.00,,,0.00,WUHU216HW,2013-01-26 12:42:00,
2013-01-26 07:47:00,24.1,19.4,29.58,North,0,3.1,3.1,82,0.00,,,0.00,WUHU216HW,2013-01-26 12:47:00,
2013-01-26 07:52:00,23.9,19.3,29.58,NNW,338,0.7,4.5,82,0.00,,,0.00,WUHU216HW,2013-01-26 12:52:00,
2013-01-26 07:57:00,23.9,19.3,29.59,NE,45,3.8,5.6,82,0.00,,,0.00,WUHU216HW,2013-01-26 12:57:00,
2013-01-26 08:02:00,24.1,19.4,29.59,NNE,23,2.5,5.6,82,0.00,,,0.00,WUHU216HW,2013-01-26 13:02:00,
2013-01-26 08:07:00,23.9,19.3,29.59,NE,45,4.0,5.1,82,0.00,,,0.00,WUHU216HW,2013-01-26 13:07:00,
2013-01-26 08:12:00,24.1,19.4,29.59,North,0,1.1,4.9,82,0.00,,,0.00,WUHU216HW,2013-01-26 13:12:00,
2013-01-26 08:17:00,23.9,19.3,29.59,NE,45,3.4,4.9,82,0.00,,,0.00,WUHU216HW,2013-01-26 13:17:00,
2013-01-26 08:22:00,23.9,19.0,29.60,NE,45,4.3,5.1,81,0.00,,,0.00,WUHU216HW,2013-01-26 13:22:00,
2013-01-26 08:27:00,24.1,19.2,29.60,NE,45,2.2,5.1,81,0.00,,,0.00,WUHU216HW,2013-01-26 13:27:00,
2013-01-26 08:32:00,24.3,19.4,29.60,NNW,338,2.0,4.3,81,0.00,,,0.00,WUHU216HW,2013-01-26 13:32:00,
2013-01-26 08:37:00,24.5,19.5,29.61,North,0,1.3,2.5,81,0.00,,,0.00,WUHU216HW,2013-01-26 13:37:00,
2013-01-26 08:42:00,24.5,19.3,29.61,NE,45,3.1,3.4,80,0.00,,,0.00,WUHU216HW,2013-01-26 13:42:00,
2013-01-26 08:47:00,24.5,19.3,29.61,NNW,338,0.9,3.4,80,0.00,,,0.00,WUHU216HW,2013-01-26 13:47:00,
2013-01-26 08:52:00,24.7,19.4,29.61,North,0,0.0,3.1,80,0.00,,,0.00,WUHU216HW,2013-01-26 13:52:00,
2013-01-26 08:57:00,24.8,19.9,29.61,NNE,23,0.9,2.5,81,0.00,,,0.00,WUHU216HW,2013-01-26 13:57:00,
2013-01-26 09:02:00,25.0,20.1,29.61,NNW,338,1.6,2.0,81,0.00,,,0.00,WUHU216HW,2013-01-26 14:02:00,
2013-01-26 09:07:00,25.4,20.1,29.61,NNE,23,3.1,3.1,80,0.00,,,0.00,WUHU216HW,2013-01-26 14:07:00,
2013-01-26 09:12:00,25.6,20.3,29.61,NNE,23,0.4,4.5,80,0.00,,,0.00,WUHU216HW,2013-01-26 14:12:00,
2013-01-26 09:17:00,26.1,20.8,29.61,NNW,338,0.0,4.5,80,0.00,,,0.00,WUHU216HW,2013-01-26 14:17:00,
2013-01-26 09:22:00,26.6,21.5,29.62,West,270,0.9,2.2,81,0.00,,,0.00,WUHU216HW,2013-01-26 14:22:00,
2013-01-26 09:27:00,27.2,22.1,29.62,West,270,1.8,2.9,81,0.00,,,0.00,WUHU216HW,2013-01-26 14:27:00,
2013-01-26 09:32:00,27.9,22.5,29.62,West,270,0.4,2.9,80,0.00,,,0.00,WUHU216HW,2013-01-26 14:32:00,
2013-01-26 09:37:00,28.1,22.4,29.63,SW,225,0.0,1.8,79,0.00,,,0.00,WUHU216HW,2013-01-26 14:37:00,
2013-01-26 09:42:00,28.4,22.8,29.63,SSW,203,2.0,2.0,79,0.00,,,0.00,WUHU216HW,2013-01-26 14:42:00,
2013-01-26 09:47:00,29.0,23.3,29.63,East,90,1.8,2.0,79,0.00,,,0.00,WUHU216HW,2013-01-26 14:47:00,
2013-01-26 09:52:00,29.3,23.7,29.63,ESE,113,2.2,2.2,79,0.00,,,0.00,WUHU216HW,2013-01-26 14:52:00,
2013-01-26 09:57:00,29.3,23.3,29.63,SE,135,0.7,2.5,78,0.00,,,0.00,WUHU216HW,2013-01-26 14:57:00,
2013-01-26 10:02:00,29.5,23.5,29.63,SE,135,1.1,2.5,78,0.00,,,0.00,WUHU216HW,2013-01-26 15:02:00,
2013-01-26 10:07:00,29.9,23.9,29.63,SE,135,1.3,1.8,78,0.00,,,0.00,WUHU216HW,2013-01-26 15:07:00,
2013-01-26 10:12:00,30.6,24.6,29.63,SE,135,1.8,1.8,78,0.00,,,0.00,WUHU216HW,2013-01-26 15:12:00,
2013-01-26 10:17:00,31.0,24.9,29.64,ESE,113,1.1,2.5,78,0.00,,,0.00,WUHU216HW,2013-01-26 15:17:00,
2013-01-26 10:22:00,31.3,24.9,29.64,SE,135,2.2,2.5,77,0.00,,,0.00,WUHU216HW,2013-01-26 15:22:00,
2013-01-26 10:27:00,31.7,25.3,29.64,SE,135,1.3,2.5,77,0.00,,,0.00,WUHU216HW,2013-01-26 15:27:00,
2013-01-26 10:32:00,32.0,25.4,29.64,SE,135,1.3,2.2,76,0.00,,,0.00,WUHU216HW,2013-01-26 15:32:00,
2013-01-26 10:37:00,32.4,25.7,29.64,SE,135,0.4,2.0,76,0.00,,,0.00,WUHU216HW,2013-01-26 15:37:00,
2013-01-26 10:42:00,32.9,26.2,29.64,SE,135,0.4,1.6,76,0.00,,,0.00,WUHU216HW,2013-01-26 15:42:00,
2013-01-26 10:47:00,33.5,26.3,29.64,ESE,113,1.8,2.7,75,0.00,,,0.00,WUHU216HW,2013-01-26 15:47:00,
2013-01-26 10:52:00,33.8,26.3,29.63,ENE,68,1.1,2.7,74,0.00,,,0.00,WUHU216HW,2013-01-26 15:52:00,
2013-01-26 10:57:00,34.4,26.6,29.63,SSE,158,0.7,1.8,73,0.00,,,0.00,WUHU216HW,2013-01-26 15:57:00,
2013-01-26 11:02:00,34.9,27.1,29.64,ESE,113,0.0,1.8,73,0.00,,,0.00,WUHU216HW,2013-01-26 16:02:00,
2013-01-26 11:07:00,34.9,27.1,29.63,WSW,248,1.6,3.1,73,0.00,,,0.00,WUHU216HW,2013-01-26 16:07:00,
2013-01-26 11:12:00,35.5,27.6,29.63,SSW,203,0.4,3.1,73,0.00,,,0.00,WUHU216HW,2013-01-26 16:12:00,
2013-01-26 11:17:00,35.8,27.4,29.63,SW,225,0.4,1.8,71,0.00,,,0.00,WUHU216HW,2013-01-26 16:17:00,
2013-01-26 11:22:00,36.0,27.6,29.63,SW,225,2.0,3.4,71,0.00,,,0.00,WUHU216HW,2013-01-26 16:22:00,
2013-01-26 11:27:00,36.2,27.7,29.63,WSW,248,2.5,3.4,71,0.00,,,0.00,WUHU216HW,2013-01-26 16:27:00,
2013-01-26 11:32:00,36.4,27.9,29.63,SE,135,0.4,3.4,71,0.00,,,0.00,WUHU216HW,2013-01-26 16:32:00,
2013-01-26 11:37:00,36.5,27.7,29.63,West,270,2.0,3.6,70,0.00,,,0.00,WUHU216HW,2013-01-26 16:37:00,
2013-01-26 11:42:00,36.7,27.6,29.63,ESE,113,1.1,3.6,69,0.00,,,0.00,WUHU216HW,2013-01-26 16:42:00,
2013-01-26 11:47:00,36.7,27.6,29.63,SSE,158,1.1,2.5,69,0.00,,,0.00,WUHU216HW,2013-01-26 16:47:00,
2013-01-26 11:52:00,37.1,27.9,29.63,ESE,113,1.3,2.9,69,0.00,,,0.00,WUHU216HW,2013-01-26 16:52:00,
2013-01-26 11:57:00,37.1,27.9,29.63,SE,135,1.8,2.9,69,0.00,,,0.00,WUHU216HW,2013-01-26 16:57:00,
2013-01-26 12:02:00,37.6,28.0,29.62,ESE,113,2.5,2.5,68,0.00,,,0.00,WUHU216HW,2013-01-26 17:02:00,
2013-01-26 12:07:00,37.4,27.5,29.63,SE,135,1.6,2.5,67,0.00,,,0.00,WUHU216HW,2013-01-26 17:07:00,
2013-01-26 12:12:00,36.4,25.8,29.62,ENE,68,2.5,5.6,65,0.00,,,0.00,WUHU216HW,2013-01-26 17:12:00,
2013-01-26 12:17:00,36.0,25.8,29.62,SSE,158,0.4,5.6,66,0.00,,,0.00,WUHU216HW,2013-01-26 17:17:00,
2013-01-26 12:22:00,35.1,25.2,29.62,ESE,113,1.8,3.4,67,0.00,,,0.00,WUHU216HW,2013-01-26 17:22:00,
2013-01-26 12:27:00,35.5,25.6,29.62,ESE,113,1.6,3.4,67,0.00,,,0.00,WUHU216HW,2013-01-26 17:27:00,
2013-01-26 12:32:00,35.8,25.9,29.62,ENE,68,4.0,4.0,67,0.00,,,0.00,WUHU216HW,2013-01-26 17:32:00,
2013-01-26 12:37:00,35.5,25.2,29.61,ENE,68,6.3,6.3,66,0.00,,,0.00,WUHU216HW,2013-01-26 17:37:00,
2013-01-26 12:42:00,34.9,25.0,29.61,ENE,68,4.0,6.3,67,0.00,,,0.00,WUHU216HW,2013-01-26 17:42:00,
2013-01-26 12:47:00,34.9,25.0,29.61,East,90,3.6,6.3,67,0.00,,,0.00,WUHU216HW,2013-01-26 17:47:00,
2013-01-26 12:52:00,35.1,25.2,29.61,East,90,2.9,4.7,67,0.00,,,0.00,WUHU216HW,2013-01-26 17:52:00,
2013-01-26 12:57:00,35.1,25.2,29.61,NE,45,3.4,4.7,67,0.00,,,0.00,WUHU216HW,2013-01-26 17:57:00,
2013-01-26 13:02:00,35.5,25.6,29.61,ESE,113,2.0,4.5,67,0.00,,,0.00,WUHU216HW,2013-01-26 18:02:00,
2013-01-26 13:07:00,35.8,25.9,29.61,East,90,1.3,4.5,67,0.00,,,0.00,WUHU216HW,2013-01-26 18:07:00,
2013-01-26 13:12:00,36.0,25.0,29.61,North,0,1.1,5.8,64,0.00,,,0.00,WUHU216HW,2013-01-26 18:12:00,
2013-01-26 13:17:00,35.8,24.9,29.61,NNE,23,4.0,5.8,64,0.00,,,0.00,WUHU216HW,2013-01-26 18:17:00,
2013-01-26 13:22:00,35.8,24.9,29.61,ENE,68,3.4,5.4,64,0.00,,,0.00,WUHU216HW,2013-01-26 18:22:00,
2013-01-26 13:27:00,36.0,25.0,29.61,NE,45,6.3,6.3,64,0.00,,,0.00,WUHU216HW,2013-01-26 18:27:00,
2013-01-26 13:32:00,36.2,24.9,29.61,NNW,338,4.0,6.7,63,0.00,,,0.00,WUHU216HW,2013-01-26 18:32:00,
2013-01-26 13:37:00,36.4,24.9,29.61,ENE,68,2.0,6.7,63,0.00,,,0.00,WUHU216HW,2013-01-26 18:37:00,
2013-01-26 13:42:00,36.5,25.1,29.61,NE,45,3.8,5.8,63,0.00,,,0.00,WUHU216HW,2013-01-26 18:42:00,
2013-01-26 13:47:00,36.7,24.9,29.60,NE,45,5.1,7.6,62,0.00,,,0.00,WUHU216HW,2013-01-26 18:47:00,
2013-01-26 13:52:00,36.7,24.9,29.61,ENE,68,6.9,7.6,62,0.00,,,0.00,WUHU216HW,2013-01-26 18:52:00,
2013-01-26 13:57:00,36.4,24.6,29.61,ENE,68,2.9,7.4,62,0.00,,,0.00,WUHU216HW,2013-01-26 18:57:00,
2013-01-26 14:02:00,36.4,24.6,29.61,NE,45,1.6,6.9,62,0.00,,,0.00,WUHU216HW,2013-01-26 19:02:00,
2013-01-26 14:07:00,36.2,24.5,29.61,NNE,23,9.2,9.2,62,0.00,,,0.00,WUHU216HW,2013-01-26 19:07:00,
2013-01-26 14:12:00,36.2,24.5,29.61,NNW,338,0.4,9.2,62,0.00,,,0.00,WUHU216HW,2013-01-26 19:12:00,
2013-01-26 14:17:00,36.4,24.6,29.61,SE,135,1.6,9.2,62,0.00,,,0.00,WUHU216HW,2013-01-26 19:17:00,
2013-01-26 14:22:00,37.1,25.3,29.61,NNE,23,10.5,10.5,62,0.00,,,0.00,WUHU216HW,2013-01-26 19:22:00,
2013-01-26 14:27:00,37.3,24.7,29.61,ENE,68,6.3,10.5,60,0.00,,,0.00,WUHU216HW,2013-01-26 19:27:00,
2013-01-26 14:32:00,36.5,24.0,29.61,NNE,23,1.3,10.5,60,0.00,,,0.00,WUHU216HW,2013-01-26 19:32:00,
2013-01-26 14:37:00,36.4,24.2,29.61,NW,315,1.8,6.5,61,0.00,,,0.00,WUHU216HW,2013-01-26 19:37:00,
2013-01-26 14:42:00,36.4,23.9,29.61,NNE,23,6.9,6.9,60,0.00,,,0.00,WUHU216HW,2013-01-26 19:42:00,
2013-01-26 14:47:00,36.0,23.6,29.62,NE,45,4.7,11.2,60,0.00,,,0.00,WUHU216HW,2013-01-26 19:47:00,
2013-01-26 14:52:00,35.8,23.8,29.62,ENE,68,2.5,11.2,61,0.00,,,0.00,WUHU216HW,2013-01-26 19:52:00,
2013-01-26 14:57:00,35.8,23.8,29.61,NE,45,5.6,5.6,61,0.00,,,0.00,WUHU216HW,2013-01-26 19:57:00,
2013-01-26 15:02:00,35.8,23.8,29.62,North,0,7.2,7.2,61,0.00,,,0.00,WUHU216HW,2013-01-26 20:02:00,
2013-01-26 15:07:00,35.5,23.0,29.62,NE,45,3.1,8.5,60,0.00,,,0.00,WUHU216HW,2013-01-26 20:07:00,
2013-01-26 15:12:00,35.8,23.8,29.62,ENE,68,4.7,8.5,61,0.00,,,0.00,WUHU216HW,2013-01-26 20:12:00,
2013-01-26 15:17:00,36.0,23.6,29.62,NNE,23,5.4,6.9,60,0.00,,,0.00,WUHU216HW,2013-01-26 20:17:00,
2013-01-26 15:22:00,36.4,23.9,29.62,NNW,338,6.5,11.4,60,0.00,,,0.00,WUHU216HW,2013-01-26 20:22:00,
2013-01-26 15:27:00,36.4,23.9,29.63,NNE,23,11.2,12.1,60,0.00,,,0.00,WUHU216HW,2013-01-26 20:27:00,
2013-01-26 15:32:00,36.4,23.9,29.63,NE,45,12.1,13.9,60,0.00,,,0.00,WUHU216HW,2013-01-26 20:32:00,
2013-01-26 15:37:00,36.4,23.9,29.63,North,0,6.3,13.9,60,0.00,,,0.00,WUHU216HW,2013-01-26 20:37:00,
2013-01-26 15:42:00,36.4,23.9,29.63,NE,45,11.6,13.4,60,0.00,,,0.00,WUHU216HW,2013-01-26 20:42:00,
2013-01-26 15:47:00,36.4,23.9,29.63,ENE,68,13.4,14.1,60,0.00,,,0.00,WUHU216HW,2013-01-26 20:47:00,
2013-01-26 15:52:00,35.6,23.2,29.63,NE,45,15.0,17.2,60,0.00,,,0.00,WUHU216HW,2013-01-26 20:52:00,
2013-01-26 15:57:00,35.3,23.2,29.63,NNE,23,13.4,17.2,61,0.00,,,0.00,WUHU216HW,2013-01-26 20:57:00,
2013-01-26 16:02:00,34.9,23.2,29.63,NNE,23,15.0,15.0,62,0.00,,,0.00,WUHU216HW,2013-01-26 21:02:00,
2013-01-26 16:07:00,34.6,23.2,29.63,NE,45,12.5,15.0,63,0.00,,,0.00,WUHU216HW,2013-01-26 21:07:00,
2013-01-26 16:12:00,34.2,23.2,29.64,NNE,23,7.6,15.0,64,0.00,,,0.00,WUHU216HW,2013-01-26 21:12:00,
2013-01-26 16:17:00,34.2,23.6,29.64,NE,45,6.9,11.6,65,0.00,,,0.00,WUHU216HW,2013-01-26 21:17:00,
2013-01-26 16:22:00,34.2,23.9,29.64,NNE,23,10.7,15.9,66,0.00,,,0.00,WUHU216HW,2013-01-26 21:22:00,
2013-01-26 16:27:00,34.4,23.8,29.65,NNE,23,8.7,15.9,65,0.00,,,0.00,WUHU216HW,2013-01-26 21:27:00,
2013-01-26 16:32:00,34.2,23.9,29.65,NE,45,8.9,12.5,66,0.00,,,0.00,WUHU216HW,2013-01-26 21:32:00,
2013-01-26 16:37:00,34.2,24.3,29.65,NE,45,13.2,13.2,67,0.00,,,0.00,WUHU216HW,2013-01-26 21:37:00,
2013-01-26 16:42:00,33.8,23.9,29.65,NNW,338,8.9,13.2,67,0.00,,,0.00,WUHU216HW,2013-01-26 21:42:00,
2013-01-26 16:47:00,33.8,23.9,29.66,NNE,23,8.1,13.2,67,0.00,,,0.00,WUHU216HW,2013-01-26 21:47:00,
2013-01-26 16:52:00,33.7,23.8,29.66,NNE,23,9.6,13.0,67,0.00,,,0.00,WUHU216HW,2013-01-26 21:52:00,
2013-01-26 16:57:00,33.3,23.5,29.66,NE,45,6.7,12.5,67,0.00,,,0.00,WUHU216HW,2013-01-26 21:57:00,
2013-01-26 17:02:00,33.1,23.7,29.66,NE,45,8.9,12.5,68,0.00,,,0.00,WUHU216HW,2013-01-26 22:02:00,
2013-01-26 17:07:00,32.6,23.5,29.67,NNE,23,8.5,14.1,69,0.00,,,0.00,WUHU216HW,2013-01-26 22:07:00,
2013-01-26 17:12:00,32.2,23.6,29.67,NNE,23,6.3,14.1,70,0.00,,,0.00,WUHU216HW,2013-01-26 22:12:00,
2013-01-26 17:17:00,31.7,22.7,29.67,NNE,23,5.8,9.8,69,0.00,,,0.00,WUHU216HW,2013-01-26 22:17:00,
2013-01-26 17:22:00,31.1,22.5,29.68,NNE,23,4.7,9.4,70,0.00,,,0.00,WUHU216HW,2013-01-26 22:22:00,
2013-01-26 17:27:00,30.6,22.0,29.68,NE,45,5.4,6.5,70,0.00,,,0.00,WUHU216HW,2013-01-26 22:27:00,
2013-01-26 17:32:00,30.6,22.6,29.68,NNE,23,7.8,7.8,72,0.00,,,0.00,WUHU216HW,2013-01-26 22:32:00,
2013-01-26 17:37:00,30.4,22.2,29.68,NNE,23,0.4,7.8,71,0.00,,,0.00,WUHU216HW,2013-01-26 22:37:00,
2013-01-26 17:42:00,30.1,22.1,29.68,NW,315,0.0,7.8,72,0.00,,,0.00,WUHU216HW,2013-01-26 22:42:00,
2013-01-26 17:47:00,29.9,22.0,29.69,NNW,338,0.9,2.7,72,0.00,,,0.00,WUHU216HW,2013-01-26 22:47:00,
2013-01-26 17:52:00,29.5,21.6,29.69,NNE,23,6.0,6.9,72,0.00,,,0.00,WUHU216HW,2013-01-26 22:52:00,
2013-01-26 17:57:00,29.5,21.9,29.69,NNW,338,4.5,6.9,73,0.00,,,0.00,WUHU216HW,2013-01-26 22:57:00,
2013-01-26 18:02:00,30.2,21.6,29.69,NE,45,8.5,11.6,70,0.00,,,0.00,WUHU216HW,2013-01-26 23:02:00,
2013-01-26 18:07:00,29.5,21.6,29.70,NW,315,2.7,11.6,72,0.00,,,0.00,WUHU216HW,2013-01-26 23:07:00,
2013-01-26 18:12:00,29.3,21.4,29.70,NW,315,2.5,11.0,72,0.00,,,0.00,WUHU216HW,2013-01-26 23:12:00,
2013-01-26 18:17:00,29.5,21.6,29.70,North,0,3.1,4.0,72,0.00,,,0.00,WUHU216HW,2013-01-26 23:17:00,
2013-01-26 18:22:00,29.9,21.2,29.70,NNW,338,2.0,4.0,70,0.00,,,0.00,WUHU216HW,2013-01-26 23:22:00,
2013-01-26 18:27:00,29.9,21.2,29.71,NNW,338,2.7,4.0,70,0.00,,,0.00,WUHU216HW,2013-01-26 23:27:00,
2013-01-26 18:32:00,29.9,20.5,29.71,North,0,3.4,4.7,68,0.00,,,0.00,WUHU216HW,2013-01-26 23:32:00,
2013-01-26 18:37:00,30.1,20.0,29.71,North,0,2.9,4.7,66,0.00,,,0.00,WUHU216HW,2013-01-26 23:37:00,
2013-01-26 18:42:00,30.2,20.2,29.71,NNW,338,2.0,3.4,66,0.00,,,0.00,WUHU216HW,2013-01-26 23:42:00,
2013-01-26 18:47:00,30.4,20.3,29.71,NW,315,2.9,3.6,66,0.00,,,0.00,WUHU216HW,2013-01-26 23:47:00,
2013-01-26 18:52:00,30.4,20.3,29.71,NW,315,1.8,4.0,66,0.00,,,0.00,WUHU216HW,2013-01-26 23:52:00,
2013-01-26 18:57:00,30.4,20.3,29.71,NW,315,4.0,4.9,66,0.00,,,0.00,WUHU216HW,2013-01-26 23:57:00,
2013-01-26 19:02:00,30.4,20.0,29.71,NW,315,1.3,4.9,65,0.00,,,0.00,WUHU216HW,2013-01-27 00:02:00,
2013-01-26 19:07:00,30.6,20.2,29.71,NW,315,1.8,4.0,65,0.00,,,0.00,WUHU216HW,2013-01-27 00:07:00,
2013-01-26 19:12:00,30.6,19.8,29.71,North,0,1.1,4.0,64,0.00,,,0.00,WUHU216HW,2013-01-27 00:12:00,
2013-01-26 19:17:00,30.2,19.4,29.72,NE,45,5.1,5.1,64,0.00,,,0.00,WUHU216HW,2013-01-27 00:17:00,
2013-01-26 19:22:00,30.2,19.1,29.72,NE,45,7.8,12.1,63,0.00,,,0.00,WUHU216HW,2013-01-27 00:22:00,
2013-01-26 19:27:00,29.9,19.1,29.72,ENE,68,3.8,12.1,64,0.00,,,0.00,WUHU216HW,2013-01-27 00:27:00,
2013-01-26 19:32:00,29.7,19.4,29.73,NE,45,4.0,9.8,65,0.00,,,0.00,WUHU216HW,2013-01-27 00:32:00,
2013-01-26 19:37:00,29.7,19.4,29.73,NNW,338,2.9,8.7,65,0.00,,,0.00,WUHU216HW,2013-01-27 00:37:00,
2013-01-26 19:42:00,29.9,19.8,29.73,NW,315,2.0,8.7,66,0.00,,,0.00,WUHU216HW,2013-01-27 00:42:00,
2013-01-26 19:47:00,29.7,19.7,29.73,North,0,0.7,4.9,66,0.00,,,0.00,WUHU216HW,2013-01-27 00:47:00,
2013-01-26 19:52:00,29.2,18.5,29.74,North,0,0.4,2.5,64,0.00,,,0.00,WUHU216HW,2013-01-27 00:52:00,
2013-01-26 19:57:00,28.8,18.2,29.74,NE,45,3.4,6.0,64,0.00,,,0.00,WUHU216HW,2013-01-27 00:57:00,
2013-01-26 20:02:00,28.6,18.4,29.74,North,0,2.0,6.0,65,0.00,,,0.00,WUHU216HW,2013-01-27 01:02:00,
2013-01-26 20:07:00,28.3,18.0,29.74,NNE,23,4.5,4.5,65,0.00,,,0.00,WUHU216HW,2013-01-27 01:07:00,
2013-01-26 20:12:00,27.9,18.0,29.74,NNE,23,3.8,4.5,66,0.00,,,0.00,WUHU216HW,2013-01-27 01:12:00,
2013-01-26 20:17:00,27.9,18.0,29.74,NNW,338,2.0,4.5,66,0.00,,,0.00,WUHU216HW,2013-01-27 01:17:00,
2013-01-26 20:22:00,28.1,18.5,29.75,North,0,1.1,3.8,67,0.00,,,0.00,WUHU216HW,2013-01-27 01:22:00,
2013-01-26 20:27:00,27.9,18.4,29.75,North,0,0.0,2.0,67,0.00,,,0.00,WUHU216HW,2013-01-27 01:27:00,
2013-01-26 20:32:00,27.7,18.2,29.75,NW,315,3.6,3.6,67,0.00,,,0.00,WUHU216HW,2013-01-27 01:32:00,
2013-01-26 20:37:00,27.9,19.4,29.75,North,0,0.9,4.7,70,0.00,,,0.00,WUHU216HW,2013-01-27 01:37:00,
2013-01-26 20:42:00,28.3,19.4,29.75,NNW,338,2.2,4.7,69,0.00,,,0.00,WUHU216HW,2013-01-27 01:42:00,
2013-01-26 20:47:00,28.6,20.2,29.76,NW,315,0.2,4.0,70,0.00,,,0.00,WUHU216HW,2013-01-27 01:47:00,
2013-01-26 20:52:00,28.8,20.0,29.76,NW,315,1.1,3.4,69,0.00,,,0.00,WUHU216HW,2013-01-27 01:52:00,
2013-01-26 20:57:00,28.6,19.5,29.76,North,0,1.8,3.4,68,0.00,,,0.00,WUHU216HW,2013-01-27 01:57:00,
2013-01-26 21:02:00,28.4,19.6,29.76,NW,315,2.0,2.0,69,0.00,,,0.00,WUHU216HW,2013-01-27 02:02:00,
2013-01-26 21:07:00,28.6,20.2,29.77,NNW,338,1.8,2.0,70,0.00,,,0.00,WUHU216HW,2013-01-27 02:07:00,
2013-01-26 21:12:00,29.2,20.6,29.77,NW,315,0.9,2.0,70,0.00,,,0.00,WUHU216HW,2013-01-27 02:12:00,
2013-01-26 21:17:00,29.3,20.8,29.77,North,0,2.0,3.1,70,0.00,,,0.00,WUHU216HW,2013-01-27 02:17:00,
2013-01-26 21:22:00,29.7,21.2,29.78,NNW,338,1.8,4.0,70,0.00,,,0.00,WUHU216HW,2013-01-27 02:22:00,
2013-01-26 21:27:00,29.9,20.9,29.79,NNW,338,2.2,4.0,69,0.00,,,0.00,WUHU216HW,2013-01-27 02:27:00,
2013-01-26 21:32:00,29.9,20.9,29.79,NW,315,2.2,3.8,69,0.00,,,0.00,WUHU216HW,2013-01-27 02:32:00,
2013-01-26 21:37:00,30.1,21.1,29.79,NW,315,1.1,5.6,69,0.00,,,0.00,WUHU216HW,2013-01-27 02:37:00,
2013-01-26 21:42:00,30.2,21.2,29.79,NW,315,1.8,5.6,69,0.00,,,0.00,WUHU216HW,2013-01-27 02:42:00,
2013-01-26 21:47:00,30.6,21.2,29.80,NW,315,3.1,4.0,68,0.00,,,0.00,WUHU216HW,2013-01-27 02:47:00,
2013-01-26 21:52:00,30.6,21.6,29.79,NW,315,1.8,4.0,69,0.00,,,0.00,WUHU216HW,2013-01-27 02:52:00,
2013-01-26 21:57:00,30.6,21.2,29.80,NW,315,1.1,4.0,68,0.00,,,0.00,WUHU216HW,2013-01-27 02:57:00,
2013-01-26 22:02:00,30.6,20.9,29.80,North,0,0.2,4.0,67,0.00,,,0.00,WUHU216HW,2013-01-27 03:02:00,
2013-01-26 22:07:00,30.8,20.7,29.80,North,0,2.0,4.9,66,0.00,,,0.00,WUHU216HW,2013-01-27 03:07:00,
2013-01-26 22:12:00,30.6,20.5,29.80,North,0,2.5,4.9,66,0.00,,,0.00,WUHU216HW,2013-01-27 03:12:00,
2013-01-26 22:17:00,30.6,20.5,29.80,NNE,23,4.7,4.7,66,0.00,,,0.00,WUHU216HW,2013-01-27 03:17:00,
2013-01-26 22:22:00,30.6,20.5,29.80,North,0,1.6,8.1,66,0.00,,,0.00,WUHU216HW,2013-01-27 03:22:00,
2013-01-26 22:27:00,30.6,20.5,29.81,North,0,1.1,8.1,66,0.00,,,0.00,WUHU216HW,2013-01-27 03:27:00,
2013-01-26 22:32:00,30.6,20.5,29.81,North,0,3.6,4.3,66,0.00,,,0.00,WUHU216HW,2013-01-27 03:32:00,
2013-01-26 22:37:00,30.6,20.5,29.81,North,0,1.3,4.3,66,0.00,,,0.00,WUHU216HW,2013-01-27 03:37:00,
2013-01-26 22:42:00,30.4,20.3,29.81,NNE,23,1.6,4.3,66,0.00,,,0.00,WUHU216HW,2013-01-27 03:42:00,
2013-01-26 22:47:00,30.4,20.0,29.82,NNW,338,2.0,8.5,65,0.00,,,0.00,WUHU216HW,2013-01-27 03:47:00,
2013-01-26 22:52:00,30.6,20.5,29.82,NNW,338,1.1,8.5,66,0.00,,,0.00,WUHU216HW,2013-01-27 03:52:00,
2013-01-26 22:57:00,30.6,20.5,29.82,NNW,338,0.4,2.9,66,0.00,,,0.00,WUHU216HW,2013-01-27 03:57:00,
2013-01-26 23:02:00,30.6,20.2,29.82,NNW,338,2.0,2.2,65,0.00,,,0.00,WUHU216HW,2013-01-27 04:02:00,
2013-01-26 23:07:00,30.4,20.3,29.83,NW,315,2.5,2.5,66,0.00,,,0.00,WUHU216HW,2013-01-27 04:07:00,
2013-01-26 23:12:00,30.4,20.3,29.83,NNW,338,2.9,2.9,66,0.00,,,0.00,WUHU216HW,2013-01-27 04:12:00,
2013-01-26 23:17:00,30.4,20.3,29.83,North,0,1.8,3.4,66,0.00,,,0.00,WUHU216HW,2013-01-27 04:17:00,
2013-01-26 23:22:00,30.4,20.3,29.84,NNW,338,1.1,3.4,66,0.00,,,0.00,WUHU216HW,2013-01-27 04:22:00,
2013-01-26 23:27:00,30.2,19.8,29.84,North,0,0.4,1.8,65,0.00,,,0.00,WUHU216HW,2013-01-27 04:27:00,
2013-01-26 23:32:00,30.1,19.6,29.84,North,0,1.8,3.8,65,0.00,,,0.00,WUHU216HW,2013-01-27 04:32:00,
2013-01-26 23:37:00,30.1,19.6,29.84,NNW,338,1.6,3.8,65,0.00,,,0.00,WUHU216HW,2013-01-27 04:37:00,
2013-01-26 23:42:00,30.2,19.8,29.84,NNW,338,1.3,2.2,65,0.00,,,0.00,WUHU216HW,2013-01-27 04:42:00,
2013-01-26 23:47:00,30.2,20.2,29.84,North,0,2.7,2.7,66,0.00,,,0.00,WUHU216HW,2013-01-27 04:47:00,
2013-01-26 23:52:00,30.2,19.8,29.84,NW,315,1.8,2.7,65,0.00,,,0.00,WUHU216HW,2013-01-27 04:52:00,
2013-01-26 23:57:00,30.2,19.8,29.84,North,0,0.9,2.7,65,0.00,,,0.00,WUHU216HW,2013-01-27 04:57:00,